sensor_id;sensor_type;location;lat;lon;timestamp;pressure;altitude;pressure_sealevel;temperature;humidity
12722;BME280;6425;50.316;8.114;2023-05-09T00:00:00;993;;;15;90.8
12722;BME280;6425;50.316;8.114;2023-05-09T00:03:00;993;;;15.1;91
12722;BME280;6425;50.316;8.114;2023-05-09T00:06:00;993;;;15.3;90.3
12722;BME280;6425;50.316;8.114;2023-05-09T00:09:00;993;;;15.3;89.6
12722;BME280;6425;50.316;8.114;2023-05-09T00:12:00;993;;;15.4;89
12722;BME280;6425;50.316;8.114;2023-05-09T00:15:00;993;;;15.5;88.5
12722;BME280;6425;50.316;8.114;2023-05-09T00:18:00;993;;;15.5;88
12722;BME280;6425;50.316;8.114;2023-05-09T00:21:00;993;;;15.4;87.9
12722;BME280;6425;50.316;8.114;2023-05-09T00:24:00;993;;;15.2;88.7
12722;BME280;6425;50.316;8.114;2023-05-09T00:27:00;993;;;15.1;89.2
12722;BME280;6425;50.316;8.114;2023-05-09T00:30:00;993;;;15.1;88.9
12722;BME280;6425;50.316;8.114;2023-05-09T00:33:00;993;;;14.9;89.8
12722;BME280;6425;50.316;8.114;2023-05-09T00:36:00;993;;;15;90.1
12722;BME280;6425;50.316;8.114;2023-05-09T00:39:00;993;;;14.7;90.4
12722;BME280;6425;50.316;8.114;2023-05-09T00:42:00;993;;;14.6;92.2
12722;BME280;6425;50.316;8.114;2023-05-09T00:45:00;992;;;14.5;92.5
12722;BME280;6425;50.316;8.114;2023-05-09T00:48:00;992;;;14.5;91.5
12722;BME280;6425;50.316;8.114;2023-05-09T00:51:00;992;;;14.5;91
12722;BME280;6425;50.316;8.114;2023-05-09T00:54:00;992;;;13.6;94.8
12722;BME280;6425;50.316;8.114;2023-05-09T00:57:00;992;;;13.6;97.3
12722;BME280;6425;50.316;8.114;2023-05-09T01:00:00;992;;;13.9;97.2
12722;BME280;6425;50.316;8.114;2023-05-09T01:03:00;992;;;14;95.7
12722;BME280;6425;50.316;8.114;2023-05-09T01:06:02;992;;;14;96.3
12722;BME280;6425;50.316;8.114;2023-05-09T01:09:01;992;;;14;96.1
12722;BME280;6425;50.316;8.114;2023-05-09T01:12:02;992;;;14.2;95.8
12722;BME280;6425;50.316;8.114;2023-05-09T01:15:02;992;;;14.3;95.1
12722;BME280;6425;50.316;8.114;2023-05-09T01:18:02;992;;;14.4;94.4
12722;BME280;6425;50.316;8.114;2023-05-09T01:21:00;992;;;14.1;94.7
12722;BME280;6425;50.316;8.114;2023-05-09T01:24:12;992;;;14.2;95.5
12722;BME280;6425;50.316;8.114;2023-05-09T01:27:05;992;;;14;96
12722;BME280;6425;50.316;8.114;2023-05-09T01:30:00;992;;;14.1;96.7
12722;BME280;6425;50.316;8.114;2023-05-09T01:33:00;992;;;14.1;96.5
12722;BME280;6425;50.316;8.114;2023-05-09T01:36:00;992;;;14.1;95.5
12722;BME280;6425;50.316;8.114;2023-05-09T01:39:00;992;;;13.8;96.4
12722;BME280;6425;50.316;8.114;2023-05-09T01:42:01;992;;;13.7;97.8
12722;BME280;6425;50.316;8.114;2023-05-09T01:45:00;992;;;13.8;98.4
12722;BME280;6425;50.316;8.114;2023-05-09T01:48:00;992;;;13.9;96.6
12722;BME280;6425;50.316;8.114;2023-05-09T01:51:00;992;;;13.3;96.9
12722;BME280;6425;50.316;8.114;2023-05-09T01:54:00;992;;;13.3;98.8
12722;BME280;6425;50.316;8.114;2023-05-09T01:57:00;992;;;13.5;98.6
12722;BME280;6425;50.316;8.114;2023-05-09T02:00:00;992;;;13.6;98.9
12722;BME280;6425;50.316;8.114;2023-05-09T02:03:00;992;;;13.7;99.2
12722;BME280;6425;50.316;8.114;2023-05-09T02:06:00;992;;;13.6;99.3
12722;BME280;6425;50.316;8.114;2023-05-09T02:09:00;992;;;13.5;100
12722;BME280;6425;50.316;8.114;2023-05-09T02:12:00;992;;;13.4;100
12722;BME280;6425;50.316;8.114;2023-05-09T02:15:00;992;;;13.4;100
12722;BME280;6425;50.316;8.114;2023-05-09T02:18:00;992;;;13.6;100
12722;BME280;6425;50.316;8.114;2023-05-09T02:21:00;992;;;13.9;100
12722;BME280;6425;50.316;8.114;2023-05-09T02:24:00;992;;;14.1;100
12722;BME280;6425;50.316;8.114;2023-05-09T02:27:00;992;;;14.3;98.9
12722;BME280;6425;50.316;8.114;2023-05-09T02:30:00;992;;;14.3;97.6
12722;BME280;6425;50.316;8.114;2023-05-09T02:33:01;992;;;14.2;98
12722;BME280;6425;50.316;8.114;2023-05-09T02:36:00;992;;;14.3;98
12722;BME280;6425;50.316;8.114;2023-05-09T02:39:00;992;;;14.4;97.8
12722;BME280;6425;50.316;8.114;2023-05-09T02:42:04;992;;;14.5;97
12722;BME280;6425;50.316;8.114;2023-05-09T02:45:00;992;;;14.5;96.5
12722;BME280;6425;50.316;8.114;2023-05-09T02:48:00;992;;;14.3;97
12722;BME280;6425;50.316;8.114;2023-05-09T02:51:00;992;;;13.9;98.6
12722;BME280;6425;50.316;8.114;2023-05-09T02:54:00;992;;;13.8;100
12722;BME280;6425;50.316;8.114;2023-05-09T02:57:00;992;;;14;99.7
12722;BME280;6425;50.316;8.114;2023-05-09T03:00:00;992;;;14.2;98.5
12722;BME280;6425;50.316;8.114;2023-05-09T03:03:00;992;;;13.9;98.3
12722;BME280;6425;50.316;8.114;2023-05-09T03:06:00;992;;;13.6;99.6
12722;BME280;6425;50.316;8.114;2023-05-09T03:09:00;992;;;13.1;100
12722;BME280;6425;50.316;8.114;2023-05-09T03:12:00;992;;;12.6;100
12722;BME280;6425;50.316;8.114;2023-05-09T03:15:00;992;;;12.4;100
12722;BME280;6425;50.316;8.114;2023-05-09T03:18:00;992;;;12.7;100
12722;BME280;6425;50.316;8.114;2023-05-09T03:21:00;992;;;13.1;100
12722;BME280;6425;50.316;8.114;2023-05-09T03:24:00;992;;;13.4;100
12722;BME280;6425;50.316;8.114;2023-05-09T03:27:00;991;;;13.6;100
12722;BME280;6425;50.316;8.114;2023-05-09T03:30:00;992;;;13.7;100
12722;BME280;6425;50.316;8.114;2023-05-09T03:33:00;991;;;13.7;100
12722;BME280;6425;50.316;8.114;2023-05-09T03:36:00;991;;;13.6;100
12722;BME280;6425;50.316;8.114;2023-05-09T03:39:00;991;;;13.6;100
12722;BME280;6425;50.316;8.114;2023-05-09T03:42:00;991;;;13.5;100
12722;BME280;6425;50.316;8.114;2023-05-09T03:45:00;991;;;13.5;100
12722;BME280;6425;50.316;8.114;2023-05-09T03:48:00;991;;;13.7;100
12722;BME280;6425;50.316;8.114;2023-05-09T03:51:00;991;;;13.6;100
12722;BME280;6425;50.316;8.114;2023-05-09T03:54:00;991;;;13.3;100
12722;BME280;6425;50.316;8.114;2023-05-09T03:57:00;991;;;13.2;100
12722;BME280;6425;50.316;8.114;2023-05-09T04:00:00;991;;;13.3;100
12722;BME280;6425;50.316;8.114;2023-05-09T04:03:00;991;;;13.5;100
12722;BME280;6425;50.316;8.114;2023-05-09T04:06:00;991;;;13.6;100
12722;BME280;6425;50.316;8.114;2023-05-09T04:09:00;991;;;13.7;99.9
12722;BME280;6425;50.316;8.114;2023-05-09T04:12:00;991;;;13.9;98.5
12722;BME280;6425;50.316;8.114;2023-05-09T04:15:00;991;;;13.5;98
12722;BME280;6425;50.316;8.114;2023-05-09T04:18:00;991;;;13.1;100
12722;BME280;6425;50.316;8.114;2023-05-09T04:21:00;991;;;13.4;100
12722;BME280;6425;50.316;8.114;2023-05-09T04:24:00;991;;;13.7;99.9
12722;BME280;6425;50.316;8.114;2023-05-09T04:27:00;991;;;13.9;98.6
12722;BME280;6425;50.316;8.114;2023-05-09T04:30:00;991;;;14;97.5
12722;BME280;6425;50.316;8.114;2023-05-09T04:33:00;991;;;13.9;97.4
12722;BME280;6425;50.316;8.114;2023-05-09T04:36:00;991;;;13.6;98.8
12722;BME280;6425;50.316;8.114;2023-05-09T04:39:00;991;;;13.4;100
12722;BME280;6425;50.316;8.114;2023-05-09T04:42:00;991;;;13.5;100
12722;BME280;6425;50.316;8.114;2023-05-09T04:45:00;991;;;13.8;100
12722;BME280;6425;50.316;8.114;2023-05-09T04:48:00;991;;;13.7;100
12722;BME280;6425;50.316;8.114;2023-05-09T04:51:00;991;;;13.8;100
12722;BME280;6425;50.316;8.114;2023-05-09T04:54:00;991;;;14.1;100
12722;BME280;6425;50.316;8.114;2023-05-09T04:57:00;991;;;14.5;98.9
12722;BME280;6425;50.316;8.114;2023-05-09T05:00:00;991;;;14.7;96.7
12722;BME280;6425;50.316;8.114;2023-05-09T05:03:00;991;;;15;95.6
12722;BME280;6425;50.316;8.114;2023-05-09T05:06:00;991;;;15.3;94.8
12722;BME280;6425;50.316;8.114;2023-05-09T05:09:00;991;;;15.7;92.5
12722;BME280;6425;50.316;8.114;2023-05-09T05:12:00;991;;;16;89.6
12722;BME280;6425;50.316;8.114;2023-05-09T05:15:00;991;;;16.2;87.9
12722;BME280;6425;50.316;8.114;2023-05-09T05:18:00;991;;;16.5;86.4
12722;BME280;6425;50.316;8.114;2023-05-09T05:21:00;991;;;16.7;85.1
12722;BME280;6425;50.316;8.114;2023-05-09T05:24:00;991;;;16.8;84.4
12722;BME280;6425;50.316;8.114;2023-05-09T05:27:00;991;;;16.9;82.9
12722;BME280;6425;50.316;8.114;2023-05-09T05:30:00;991;;;16.9;82.6
12722;BME280;6425;50.316;8.114;2023-05-09T05:33:00;991;;;16.8;82.7
12722;BME280;6425;50.316;8.114;2023-05-09T05:36:00;991;;;16.6;82.8
12722;BME280;6425;50.316;8.114;2023-05-09T05:39:00;991;;;16.5;84.4
12722;BME280;6425;50.316;8.114;2023-05-09T05:42:00;991;;;16.5;85.1
12722;BME280;6425;50.316;8.114;2023-05-09T05:45:00;991;;;16.6;85.5
12722;BME280;6425;50.316;8.114;2023-05-09T05:48:00;991;;;16.3;86.5
12722;BME280;6425;50.316;8.114;2023-05-09T05:51:00;991;;;16.2;87.2
12722;BME280;6425;50.316;8.114;2023-05-09T05:54:00;991;;;16.4;87.4
12722;BME280;6425;50.316;8.114;2023-05-09T05:57:00;991;;;16.5;86.9
12722;BME280;6425;50.316;8.114;2023-05-09T06:00:01;991;;;16.3;88.1
12722;BME280;6425;50.316;8.114;2023-05-09T06:03:00;991;;;16.4;89.2
12722;BME280;6425;50.316;8.114;2023-05-09T06:06:00;990;;;16.5;88.6
12722;BME280;6425;50.316;8.114;2023-05-09T06:09:00;990;;;16.6;88.4
12722;BME280;6425;50.316;8.114;2023-05-09T06:12:00;991;;;16.4;88.5
12722;BME280;6425;50.316;8.114;2023-05-09T06:15:00;990;;;16.1;90.3
12722;BME280;6425;50.316;8.114;2023-05-09T06:18:00;991;;;16.1;91.2
12722;BME280;6425;50.316;8.114;2023-05-09T06:21:00;991;;;16.1;91.5
12722;BME280;6425;50.316;8.114;2023-05-09T06:24:00;991;;;15.4;95.2
12722;BME280;6425;50.316;8.114;2023-05-09T06:27:00;990;;;15.5;96.9
12722;BME280;6425;50.316;8.114;2023-05-09T06:30:00;990;;;16.2;92.8
12722;BME280;6425;50.316;8.114;2023-05-09T06:33:00;990;;;16.3;92.3
12722;BME280;6425;50.316;8.114;2023-05-09T06:36:00;990;;;16.7;89
12722;BME280;6425;50.316;8.114;2023-05-09T06:39:00;990;;;17.1;86.2
12722;BME280;6425;50.316;8.114;2023-05-09T06:42:00;990;;;16.8;85.8
12722;BME280;6425;50.316;8.114;2023-05-09T06:45:00;990;;;16.8;86
12722;BME280;6425;50.316;8.114;2023-05-09T06:48:00;990;;;16.5;86.8
12722;BME280;6425;50.316;8.114;2023-05-09T06:51:00;990;;;16.6;87.3
12722;BME280;6425;50.316;8.114;2023-05-09T06:54:00;990;;;16.9;85.9
12722;BME280;6425;50.316;8.114;2023-05-09T06:57:00;990;;;16.9;84.3
12722;BME280;6425;50.316;8.114;2023-05-09T07:00:00;990;;;16.9;84.4
12722;BME280;6425;50.316;8.114;2023-05-09T07:03:00;990;;;16.9;85
12722;BME280;6425;50.316;8.114;2023-05-09T07:06:00;990;;;17.1;83.6
12722;BME280;6425;50.316;8.114;2023-05-09T07:09:00;990;;;17.3;82.4
12722;BME280;6425;50.316;8.114;2023-05-09T07:12:00;990;;;17.5;81.9
12722;BME280;6425;50.316;8.114;2023-05-09T07:15:00;990;;;17.5;80.9
12722;BME280;6425;50.316;8.114;2023-05-09T07:18:00;990;;;17.4;81.5
12722;BME280;6425;50.316;8.114;2023-05-09T07:21:00;990;;;16.7;82.5
12722;BME280;6425;50.316;8.114;2023-05-09T07:24:00;990;;;16.8;86.2
12722;BME280;6425;50.316;8.114;2023-05-09T07:27:01;990;;;17.4;82.1
12722;BME280;6425;50.316;8.114;2023-05-09T07:30:00;990;;;17.9;80.1
12722;BME280;6425;50.316;8.114;2023-05-09T07:33:00;990;;;18.5;77.3
12722;BME280;6425;50.316;8.114;2023-05-09T07:36:00;990;;;18.6;75.3
12722;BME280;6425;50.316;8.114;2023-05-09T07:39:00;990;;;18.1;75.7
12722;BME280;6425;50.316;8.114;2023-05-09T07:42:00;990;;;17.9;76.6
12722;BME280;6425;50.316;8.114;2023-05-09T07:45:00;990;;;17.8;77.9
12722;BME280;6425;50.316;8.114;2023-05-09T07:48:00;990;;;17.5;79.4
12722;BME280;6425;50.316;8.114;2023-05-09T07:51:00;990;;;17.7;78.9
12722;BME280;6425;50.316;8.114;2023-05-09T07:54:00;989;;;17.5;78.8
12722;BME280;6425;50.316;8.114;2023-05-09T07:57:00;989;;;17.8;79.3
12722;BME280;6425;50.316;8.114;2023-05-09T08:00:00;989;;;18.3;77.9
12722;BME280;6425;50.316;8.114;2023-05-09T08:03:00;989;;;18.2;76.4
12722;BME280;6425;50.316;8.114;2023-05-09T08:06:00;989;;;18.2;76.5
12722;BME280;6425;50.316;8.114;2023-05-09T08:09:00;989;;;18;77.5
12722;BME280;6425;50.316;8.114;2023-05-09T08:12:00;989;;;18.4;76.3
12722;BME280;6425;50.316;8.114;2023-05-09T08:15:00;989;;;18.7;74.9
12722;BME280;6425;50.316;8.114;2023-05-09T08:18:00;989;;;18.8;72.9
12722;BME280;6425;50.316;8.114;2023-05-09T08:21:00;989;;;18.6;74.5
12722;BME280;6425;50.316;8.114;2023-05-09T08:24:00;989;;;18.6;73.9
12722;BME280;6425;50.316;8.114;2023-05-09T08:27:00;989;;;18.9;72.5
12722;BME280;6425;50.316;8.114;2023-05-09T08:30:00;989;;;19;72.7
12722;BME280;6425;50.316;8.114;2023-05-09T08:33:00;989;;;18.9;73.2
12722;BME280;6425;50.316;8.114;2023-05-09T08:36:00;989;;;18.9;71.9
12722;BME280;6425;50.316;8.114;2023-05-09T08:39:00;989;;;18.6;73.3
12722;BME280;6425;50.316;8.114;2023-05-09T08:42:00;989;;;18.6;72.9
12722;BME280;6425;50.316;8.114;2023-05-09T08:45:00;989;;;18.6;74.1
12722;BME280;6425;50.316;8.114;2023-05-09T08:48:01;989;;;18.4;75.5
12722;BME280;6425;50.316;8.114;2023-05-09T08:51:00;989;;;18.5;73.9
12722;BME280;6425;50.316;8.114;2023-05-09T08:54:00;989;;;18.9;73.1
12722;BME280;6425;50.316;8.114;2023-05-09T08:57:00;989;;;18.7;72.4
12722;BME280;6425;50.316;8.114;2023-05-09T09:00:00;989;;;18.8;71.9
12722;BME280;6425;50.316;8.114;2023-05-09T09:03:00;989;;;18.7;72.9
12722;BME280;6425;50.316;8.114;2023-05-09T09:06:00;989;;;18.9;72.3
12722;BME280;6425;50.316;8.114;2023-05-09T09:09:00;989;;;19.1;71.8
12722;BME280;6425;50.316;8.114;2023-05-09T09:12:00;989;;;18.8;71.5
12722;BME280;6425;50.316;8.114;2023-05-09T09:15:02;989;;;18.3;73.3
12722;BME280;6425;50.316;8.114;2023-05-09T09:18:02;989;;;18.1;76.1
12722;BME280;6425;50.316;8.114;2023-05-09T09:21:01;989;;;18.1;78.4
12722;BME280;6425;50.316;8.114;2023-05-09T09:24:00;989;;;18.5;75.7
12722;BME280;6425;50.316;8.114;2023-05-09T09:27:03;989;;;18.4;75.4
12722;BME280;6425;50.316;8.114;2023-05-09T09:30:05;988;;;18.6;75.1
12722;BME280;6425;50.316;8.114;2023-05-09T09:33:00;989;;;18.8;73.5
12722;BME280;6425;50.316;8.114;2023-05-09T09:36:00;989;;;18.9;73.1
12722;BME280;6425;50.316;8.114;2023-05-09T09:39:00;988;;;18.7;72.1
12722;BME280;6425;50.316;8.114;2023-05-09T09:42:08;988;;;18.6;73.2
12722;BME280;6425;50.316;8.114;2023-05-09T09:45:00;988;;;18.5;73.8
12722;BME280;6425;50.316;8.114;2023-05-09T09:48:00;988;;;18.4;73.7
12722;BME280;6425;50.316;8.114;2023-05-09T09:51:02;988;;;18.6;74.9
12722;BME280;6425;50.316;8.114;2023-05-09T09:54:00;988;;;18.5;74
12722;BME280;6425;50.316;8.114;2023-05-09T09:57:00;988;;;18.7;73.3
12722;BME280;6425;50.316;8.114;2023-05-09T10:00:00;988;;;18.9;72.4
12722;BME280;6425;50.316;8.114;2023-05-09T10:03:00;988;;;18.9;72.7
12722;BME280;6425;50.316;8.114;2023-05-09T10:06:00;988;;;18.6;73.7
12722;BME280;6425;50.316;8.114;2023-05-09T10:09:00;988;;;18.6;74.2
12722;BME280;6425;50.316;8.114;2023-05-09T10:12:00;988;;;18.8;74.4
12722;BME280;6425;50.316;8.114;2023-05-09T10:15:00;988;;;18.7;75
12722;BME280;6425;50.316;8.114;2023-05-09T10:18:00;988;;;18.5;75.3
12722;BME280;6425;50.316;8.114;2023-05-09T10:21:00;988;;;18.8;75.8
12722;BME280;6425;50.316;8.114;2023-05-09T10:24:00;988;;;18.5;76.4
12722;BME280;6425;50.316;8.114;2023-05-09T10:27:01;988;;;18.6;75.8
12722;BME280;6425;50.316;8.114;2023-05-09T10:30:01;988;;;18.6;76.6
12722;BME280;6425;50.316;8.114;2023-05-09T10:33:01;988;;;18.5;75.9
12722;BME280;6425;50.316;8.114;2023-05-09T10:36:00;988;;;18.5;76.5
12722;BME280;6425;50.316;8.114;2023-05-09T10:39:00;988;;;18.3;76.3
12722;BME280;6425;50.316;8.114;2023-05-09T10:42:00;988;;;18.1;77.9
12722;BME280;6425;50.316;8.114;2023-05-09T10:45:00;988;;;18;78.4
12722;BME280;6425;50.316;8.114;2023-05-09T10:48:00;988;;;17.8;79.8
12722;BME280;6425;50.316;8.114;2023-05-09T10:51:00;988;;;17.4;82.3
12722;BME280;6425;50.316;8.114;2023-05-09T10:54:00;988;;;17.4;83.1
12722;BME280;6425;50.316;8.114;2023-05-09T10:57:00;988;;;17.5;83.3
12722;BME280;6425;50.316;8.114;2023-05-09T11:00:00;988;;;17.4;83.5
12722;BME280;6425;50.316;8.114;2023-05-09T11:03:04;988;;;17.1;85.1
12722;BME280;6425;50.316;8.114;2023-05-09T11:06:00;988;;;17;86.9
12722;BME280;6425;50.316;8.114;2023-05-09T11:09:04;988;;;16.7;89.6
12722;BME280;6425;50.316;8.114;2023-05-09T11:12:07;988;;;16.8;91.6
12722;BME280;6425;50.316;8.114;2023-05-09T11:15:03;988;;;17.3;90.5
12722;BME280;6425;50.316;8.114;2023-05-09T11:18:03;988;;;17.6;86.6
12722;BME280;6425;50.316;8.114;2023-05-09T11:21:06;987;;;17.3;86.4
12722;BME280;6425;50.316;8.114;2023-05-09T11:24:00;987;;;17.2;88.5
12722;BME280;6425;50.316;8.114;2023-05-09T11:27:00;987;;;17.4;88.3
12722;BME280;6425;50.316;8.114;2023-05-09T11:30:01;987;;;17.4;87.8
12722;BME280;6425;50.316;8.114;2023-05-09T11:33:00;987;;;17.3;88.7
12722;BME280;6425;50.316;8.114;2023-05-09T11:36:16;987;;;17.3;89.2
12722;BME280;6425;50.316;8.114;2023-05-09T11:39:01;987;;;17.6;88.2
12722;BME280;6425;50.316;8.114;2023-05-09T11:42:00;987;;;17.7;84.9
12722;BME280;6425;50.316;8.114;2023-05-09T11:45:00;987;;;17.9;86.1
12722;BME280;6425;50.316;8.114;2023-05-09T11:48:00;987;;;18;84.4
12722;BME280;6425;50.316;8.114;2023-05-09T11:51:00;987;;;18.2;82.5
12722;BME280;6425;50.316;8.114;2023-05-09T11:54:00;987;;;18.6;80.2
12722;BME280;6425;50.316;8.114;2023-05-09T11:57:00;987;;;19;78.5
12722;BME280;6425;50.316;8.114;2023-05-09T12:00:00;987;;;19.4;76.1
12722;BME280;6425;50.316;8.114;2023-05-09T12:03:00;987;;;19.7;75.6
12722;BME280;6425;50.316;8.114;2023-05-09T12:06:00;987;;;20.1;75
12722;BME280;6425;50.316;8.114;2023-05-09T12:09:00;987;;;20.7;72.4
12722;BME280;6425;50.316;8.114;2023-05-09T12:12:00;986;;;21;70
12722;BME280;6425;50.316;8.114;2023-05-09T12:15:00;987;;;21.3;67.7
12722;BME280;6425;50.316;8.114;2023-05-09T12:18:00;986;;;21.2;69
12722;BME280;6425;50.316;8.114;2023-05-09T12:21:00;986;;;21.4;67.5
12722;BME280;6425;50.316;8.114;2023-05-09T12:24:00;986;;;20.9;66.1
12722;BME280;6425;50.316;8.114;2023-05-09T12:27:00;986;;;20.4;67.1
12722;BME280;6425;50.316;8.114;2023-05-09T12:30:00;986;;;20.2;69
12722;BME280;6425;50.316;8.114;2023-05-09T12:33:00;986;;;20.2;66.9
12722;BME280;6425;50.316;8.114;2023-05-09T12:36:00;986;;;19.9;68
12722;BME280;6425;50.316;8.114;2023-05-09T12:39:00;986;;;19.4;70.3
12722;BME280;6425;50.316;8.114;2023-05-09T12:42:00;986;;;18.9;72.4
12722;BME280;6425;50.316;8.114;2023-05-09T12:45:00;986;;;18.6;80.3
12722;BME280;6425;50.316;8.114;2023-05-09T12:48:00;986;;;18.3;78.5
12722;BME280;6425;50.316;8.114;2023-05-09T12:51:01;986;;;18.2;79.1
12722;BME280;6425;50.316;8.114;2023-05-09T12:54:01;986;;;18.2;79.4
12722;BME280;6425;50.316;8.114;2023-05-09T12:57:00;986;;;18.3;77.9
12722;BME280;6425;50.316;8.114;2023-05-09T13:00:00;986;;;18.4;79.6
12722;BME280;6425;50.316;8.114;2023-05-09T13:03:00;986;;;18.3;78.6
12722;BME280;6425;50.316;8.114;2023-05-09T13:06:00;986;;;18.3;79.2
12722;BME280;6425;50.316;8.114;2023-05-09T13:09:00;986;;;18.5;79.6
12722;BME280;6425;50.316;8.114;2023-05-09T13:12:01;986;;;18.4;79.8
12722;BME280;6425;50.316;8.114;2023-05-09T13:15:00;986;;;18.2;82.8
12722;BME280;6425;50.316;8.114;2023-05-09T13:18:00;986;;;18.1;84.9
12722;BME280;6425;50.316;8.114;2023-05-09T13:21:00;986;;;17.7;85
12722;BME280;6425;50.316;8.114;2023-05-09T13:24:00;986;;;17.6;87.4
12722;BME280;6425;50.316;8.114;2023-05-09T13:27:00;985;;;17.5;89
12722;BME280;6425;50.316;8.114;2023-05-09T13:30:00;985;;;17.5;89.2
12722;BME280;6425;50.316;8.114;2023-05-09T13:33:00;985;;;17.6;87.7
12722;BME280;6425;50.316;8.114;2023-05-09T13:36:00;985;;;17.9;85.6
12722;BME280;6425;50.316;8.114;2023-05-09T13:39:00;985;;;18.1;83.5
12722;BME280;6425;50.316;8.114;2023-05-09T13:42:00;985;;;17.7;87.6
12722;BME280;6425;50.316;8.114;2023-05-09T13:45:00;985;;;17.1;93
12722;BME280;6425;50.316;8.114;2023-05-09T13:48:00;985;;;16.6;96.2
12722;BME280;6425;50.316;8.114;2023-05-09T13:51:00;985;;;17.2;94.2
12722;BME280;6425;50.316;8.114;2023-05-09T13:54:00;985;;;17.6;89.2
12722;BME280;6425;50.316;8.114;2023-05-09T13:57:00;985;;;17.9;87.2
12722;BME280;6425;50.316;8.114;2023-05-09T14:00:00;985;;;18.1;84.6
12722;BME280;6425;50.316;8.114;2023-05-09T14:03:00;985;;;18.4;83.2
12722;BME280;6425;50.316;8.114;2023-05-09T14:06:00;985;;;18.5;82.1
12722;BME280;6425;50.316;8.114;2023-05-09T14:09:00;985;;;18.6;80.5
12722;BME280;6425;50.316;8.114;2023-05-09T14:12:00;985;;;18.5;79
12722;BME280;6425;50.316;8.114;2023-05-09T14:15:00;985;;;18.5;80
12722;BME280;6425;50.316;8.114;2023-05-09T14:18:00;985;;;18.4;79.5
12722;BME280;6425;50.316;8.114;2023-05-09T14:21:00;985;;;18.3;79.2
12722;BME280;6425;50.316;8.114;2023-05-09T14:24:00;985;;;18.3;80.2
12722;BME280;6425;50.316;8.114;2023-05-09T14:27:00;985;;;18.3;81.3
12722;BME280;6425;50.316;8.114;2023-05-09T14:30:00;985;;;18.3;81.7
12722;BME280;6425;50.316;8.114;2023-05-09T14:33:00;985;;;18.4;81.1
12722;BME280;6425;50.316;8.114;2023-05-09T14:36:00;985;;;18.6;81.8
12722;BME280;6425;50.316;8.114;2023-05-09T14:39:00;984;;;19;81
12722;BME280;6425;50.316;8.114;2023-05-09T14:42:00;984;;;19.2;78.7
12722;BME280;6425;50.316;8.114;2023-05-09T14:45:00;984;;;19.3;78.7
12722;BME280;6425;50.316;8.114;2023-05-09T14:48:00;984;;;19.3;77.2
12722;BME280;6425;50.316;8.114;2023-05-09T14:51:00;984;;;19.2;76.7
12722;BME280;6425;50.316;8.114;2023-05-09T14:54:00;984;;;19;74.6
12722;BME280;6425;50.316;8.114;2023-05-09T14:57:00;984;;;18.9;75.4
12722;BME280;6425;50.316;8.114;2023-05-09T15:00:00;984;;;18.9;76.8
12722;BME280;6425;50.316;8.114;2023-05-09T15:03:00;984;;;18.9;77.4
12722;BME280;6425;50.316;8.114;2023-05-09T15:06:00;984;;;19;76.7
12722;BME280;6425;50.316;8.114;2023-05-09T15:09:00;984;;;18.9;76.4
12722;BME280;6425;50.316;8.114;2023-05-09T15:12:00;984;;;19;76.7
12722;BME280;6425;50.316;8.114;2023-05-09T15:15:10;984;;;19.1;76.2
12722;BME280;6425;50.316;8.114;2023-05-09T15:18:00;984;;;19.1;75.2
12722;BME280;6425;50.316;8.114;2023-05-09T15:21:00;984;;;18.9;76.3
12722;BME280;6425;50.316;8.114;2023-05-09T15:24:00;984;;;18.9;76.3
12722;BME280;6425;50.316;8.114;2023-05-09T15:27:00;984;;;18.8;76.2
12722;BME280;6425;50.316;8.114;2023-05-09T15:30:00;984;;;18.7;76.5
12722;BME280;6425;50.316;8.114;2023-05-09T15:33:00;984;;;18.6;77.3
12722;BME280;6425;50.316;8.114;2023-05-09T15:36:00;984;;;18.4;78.7
12722;BME280;6425;50.316;8.114;2023-05-09T15:39:00;984;;;18.2;79.5
12722;BME280;6425;50.316;8.114;2023-05-09T15:42:00;984;;;18.1;79.6
12722;BME280;6425;50.316;8.114;2023-05-09T15:45:00;984;;;18.2;79.4
12722;BME280;6425;50.316;8.114;2023-05-09T15:48:00;984;;;18.3;79.4
12722;BME280;6425;50.316;8.114;2023-05-09T15:51:00;984;;;18.3;79.6
12722;BME280;6425;50.316;8.114;2023-05-09T15:54:00;984;;;18.2;80.3
12722;BME280;6425;50.316;8.114;2023-05-09T15:57:00;984;;;18.3;80.3
12722;BME280;6425;50.316;8.114;2023-05-09T16:00:00;983;;;18.3;80.3
12722;BME280;6425;50.316;8.114;2023-05-09T16:03:00;983;;;18.4;80.1
12722;BME280;6425;50.316;8.114;2023-05-09T16:06:00;983;;;18.6;79.4
12722;BME280;6425;50.316;8.114;2023-05-09T16:09:00;983;;;18.7;78.9
12722;BME280;6425;50.316;8.114;2023-05-09T16:12:00;983;;;18.6;78.3
12722;BME280;6425;50.316;8.114;2023-05-09T16:15:00;983;;;18.5;79
12722;BME280;6425;50.316;8.114;2023-05-09T16:18:00;983;;;18.5;79.4
12722;BME280;6425;50.316;8.114;2023-05-09T16:21:00;983;;;18.1;81.1
12722;BME280;6425;50.316;8.114;2023-05-09T16:24:00;983;;;17.9;82.7
12722;BME280;6425;50.316;8.114;2023-05-09T16:27:00;983;;;17.7;84.9
12722;BME280;6425;50.316;8.114;2023-05-09T16:30:00;983;;;17.5;86.4
12722;BME280;6425;50.316;8.114;2023-05-09T16:33:00;983;;;17.5;87.7
12722;BME280;6425;50.316;8.114;2023-05-09T16:36:00;983;;;17.4;88.4
12722;BME280;6425;50.316;8.114;2023-05-09T16:39:00;983;;;17.2;89.8
12722;BME280;6425;50.316;8.114;2023-05-09T16:42:00;983;;;17.2;90.9
12722;BME280;6425;50.316;8.114;2023-05-09T16:45:00;983;;;17.4;90.4
12722;BME280;6425;50.316;8.114;2023-05-09T16:48:00;983;;;17.4;89.5
12722;BME280;6425;50.316;8.114;2023-05-09T16:51:00;983;;;17.3;90.9
12722;BME280;6425;50.316;8.114;2023-05-09T16:54:00;983;;;17.6;89.6
12722;BME280;6425;50.316;8.114;2023-05-09T16:57:00;983;;;17.9;87.4
12722;BME280;6425;50.316;8.114;2023-05-09T17:00:00;983;;;18.2;85.2
12722;BME280;6425;50.316;8.114;2023-05-09T17:03:00;983;;;18.5;83.9
12722;BME280;6425;50.316;8.114;2023-05-09T17:06:00;983;;;18.3;84.3
12722;BME280;6425;50.316;8.114;2023-05-09T17:09:00;983;;;18.1;85.5
12722;BME280;6425;50.316;8.114;2023-05-09T17:12:00;983;;;17.9;85.6
12722;BME280;6425;50.316;8.114;2023-05-09T17:15:00;983;;;17.2;87.9
12722;BME280;6425;50.316;8.114;2023-05-09T17:18:00;983;;;16.7;90.3
12722;BME280;6425;50.316;8.114;2023-05-09T17:21:00;983;;;16.2;93.4
12722;BME280;6425;50.316;8.114;2023-05-09T17:24:00;983;;;16;94.6
12722;BME280;6425;50.316;8.114;2023-05-09T17:27:00;983;;;15.9;94.6
12722;BME280;6425;50.316;8.114;2023-05-09T17:30:00;983;;;15.9;95.8
12722;BME280;6425;50.316;8.114;2023-05-09T17:33:00;983;;;15.6;96.5
12722;BME280;6425;50.316;8.114;2023-05-09T17:36:00;983;;;15.5;97.3
12722;BME280;6425;50.316;8.114;2023-05-09T17:39:00;983;;;15.5;98.1
12722;BME280;6425;50.316;8.114;2023-05-09T17:42:00;983;;;15.4;98.4
12722;BME280;6425;50.316;8.114;2023-05-09T17:45:00;983;;;15.4;98.7
12722;BME280;6425;50.316;8.114;2023-05-09T17:48:00;983;;;15.5;98.7
12722;BME280;6425;50.316;8.114;2023-05-09T17:51:00;983;;;15.6;98.7